Station: EHBK - 19/09/2020 09:25Z (il y a 23 minutes)
EHBK 190925Z AUTO 06005KT 010V100 9999 NCD 20/09 Q1018 NOSIG
Vent du 060º - 5 kt (vent de direction variable de 010º à 100º)
Visibilité > 10 km
Pas de nuages détectés
Température: +20ºC - Point de rosée: +09ºC - QNH: 1018 hPa
Pas de changement significatif prévu dans les 2 heures qui suivent l'observation